Time;durP1;ratioP1;P1;durP2;ratioP2;P2;SDS_P1;SDS_P2;PMS_P1;PMS_P2;Temp;Humidity;BMP_temperature;BMP_pressure;BME280_temperature;BME280_humidity;BME280_pressure;Samples;Min_cycle;Max_cycle;Signal;HPM_P1;HPM_P2
2024/03/24 00:00:04;;;;;;;12.73;6.42;;;;;;;4.82;91.60;99071.59;1814185;79;25602;-64
2024/03/24 00:02:32;;;;;;;11.05;6.97;;;;;;;4.82;91.58;99071.03;1814321;79;25587;-64
2024/03/24 00:05:00;;;;;;;11.12;6.35;;;;;;;4.80;91.67;99073.23;1814223;79;25378;-65
2024/03/24 00:07:26;;;;;;;14.15;6.67;;;;;;;4.77;91.58;99068.46;1814109;79;27300;-64
2024/03/24 00:09:54;;;;;;;12.60;7.22;;;;;;;4.75;91.50;99072.52;1814184;79;25445;-64
2024/03/24 00:12:22;;;;;;;14.07;7.45;;;;;;;4.73;91.48;99068.02;1814223;79;25619;-72
2024/03/24 00:14:49;;;;;;;12.43;7.50;;;;;;;4.72;91.49;99063.21;1814450;79;25642;-72
2024/03/24 00:17:16;;;;;;;13.75;7.75;;;;;;;4.72;91.52;99064.55;1814503;79;25473;-73
2024/03/24 00:19:43;;;;;;;15.03;7.50;;;;;;;4.72;91.67;99059.19;1814453;79;27412;-72
2024/03/24 00:22:09;;;;;;;14.33;7.37;;;;;;;4.73;91.76;99066.12;1803099;79;25459;-75
2024/03/24 00:24:36;;;;;;;11.20;7.33;;;;;;;4.75;91.73;99062.62;1814422;79;25615;-73
2024/03/24 00:27:03;;;;;;;13.18;7.65;;;;;;;4.75;91.72;99065.82;1814462;79;25622;-72
2024/03/24 00:29:31;;;;;;;16.12;8.43;;;;;;;4.75;91.47;99058.59;1814535;79;25374;-71
2024/03/24 00:31:57;;;;;;;11.65;7.65;;;;;;;4.73;91.56;99050.60;1814420;78;27319;-70
2024/03/24 00:34:24;;;;;;;14.80;8.78;;;;;;;4.74;91.58;99054.32;1814205;79;25581;-74
2024/03/24 00:36:51;;;;;;;14.07;9.40;;;;;;;4.75;91.47;99066.63;1814525;79;25474;-70
2024/03/24 00:39:18;;;;;;;13.20;9.93;;;;;;;4.73;91.10;99074.71;1814496;79;25591;-69
2024/03/24 00:41:46;;;;;;;17.13;10.20;;;;;;;4.68;90.91;99072.39;1814644;79;25598;-69
2024/03/24 00:44:14;;;;;;;17.10;10.72;;;;;;;4.67;90.89;99072.13;1814441;79;28418;-73
2024/03/24 00:46:42;;;;;;;15.68;10.15;;;;;;;4.65;90.92;99077.00;1814400;79;25448;-71
2024/03/24 00:49:10;;;;;;;24.63;17.67;;;;;;;4.63;90.93;99075.70;1814686;79;25482;-72
2024/03/24 00:51:37;;;;;;;35.68;26.50;;;;;;;4.63;91.05;99073.02;1814472;79;25802;-72
2024/03/24 00:54:04;;;;;;;32.33;19.23;;;;;;;4.62;91.06;99068.78;1814533;79;25177;-72
2024/03/24 00:56:31;;;;;;;26.90;16.93;;;;;;;4.62;90.96;99062.08;1814396;79;27384;-71
2024/03/24 00:58:58;;;;;;;20.77;14.20;;;;;;;4.64;91.04;99059.89;1814348;79;25538;-70
2024/03/24 01:01:26;;;;;;;23.10;15.38;;;;;;;4.62;90.81;99046.80;1814421;79;25547;-71
2024/03/24 01:03:54;;;;;;;20.68;13.75;;;;;;;4.62;90.73;99042.78;1814439;79;25647;-71
2024/03/24 01:06:21;;;;;;;27.35;14.83;;;;;;;4.61;90.74;99032.36;1814532;79;25609;-71
2024/03/24 01:08:48;;;;;;;20.17;13.22;;;;;;;4.58;90.53;99028.41;1814431;79;27949;-70
2024/03/24 01:11:15;;;;;;;18.67;13.43;;;;;;;4.55;90.18;99029.56;1814371;79;25677;-71
2024/03/24 01:13:44;;;;;;;20.57;13.53;;;;;;;4.53;90.29;99031.72;1814467;79;25243;-71
2024/03/24 01:16:12;;;;;;;21.70;13.75;;;;;;;4.51;90.49;99032.02;1813516;79;25716;-71
2024/03/24 01:18:39;;;;;;;20.40;13.40;;;;;;;4.51;90.64;99035.25;1811893;79;25799;-69
2024/03/24 01:21:06;;;;;;;24.25;14.60;;;;;;;4.49;90.50;99036.36;1812421;79;28336;-71
2024/03/24 01:23:33;;;;;;;23.92;14.35;;;;;;;4.47;90.48;99036.39;1813162;79;25692;-70
2024/03/24 01:26:00;;;;;;;24.20;14.45;;;;;;;4.45;90.34;99040.70;1813706;79;25581;-70
2024/03/24 01:28:27;;;;;;;25.15;14.50;;;;;;;4.42;90.27;99044.53;1813684;79;25787;-68
2024/03/24 01:30:54;;;;;;;23.02;15.08;;;;;;;4.39;90.46;99033.07;1813746;79;25868;-69
2024/03/24 01:33:21;;;;;;;26.62;14.63;;;;;;;4.37;90.28;99030.69;1814366;79;27296;-68
2024/03/24 01:35:49;;;;;;;27.27;14.05;;;;;;;4.36;90.23;99037.68;1814432;77;25723;-68
2024/03/24 01:38:15;;;;;;;20.17;13.85;;;;;;;4.33;90.10;99044.44;1814579;79;25516;-70
2024/03/24 01:40:50;;;;;;;22.90;13.62;;;;;;;4.30;90.17;99035.66;1814660;79;25839;-69
2024/03/24 01:43:18;;;;;;;21.57;13.65;;;;;;;4.29;90.25;99046.11;1814745;79;25643;-69
2024/03/24 01:45:46;;;;;;;22.20;12.82;;;;;;;4.26;90.55;99046.17;1814530;79;27184;-69
2024/03/24 01:48:15;;;;;;;19.23;12.40;;;;;;;4.25;90.59;99044.57;1814374;79;25668;-74
2024/03/24 01:50:45;;;;;;;20.35;12.13;;;;;;;4.22;90.54;99039.84;1814525;79;25527;-69
2024/03/24 01:53:12;;;;;;;17.02;10.30;;;;;;;4.20;90.38;99033.17;1814692;79;25803;-68
2024/03/24 01:55:40;;;;;;;14.07;9.95;;;;;;;4.15;90.17;99038.63;1814614;79;25635;-68
2024/03/24 01:58:08;;;;;;;16.55;9.80;;;;;;;4.11;90.24;99039.77;1814634;79;28210;-68
2024/03/24 02:00:35;;;;;;;14.20;9.03;;;;;;;4.05;90.17;99035.06;1814462;79;25678;-68
2024/03/24 02:03:03;;;;;;;17.60;9.70;;;;;;;4.02;90.29;99027.63;1814569;79;25508;-67
2024/03/24 02:05:32;;;;;;;16.52;9.23;;;;;;;3.98;90.34;99037.31;1814555;79;25971;-68
2024/03/24 02:07:59;;;;;;;12.78;8.25;;;;;;;3.97;90.21;99041.62;1814794;79;25444;-68
2024/03/24 02:10:26;;;;;;;12.75;8.35;;;;;;;3.93;90.35;99029.38;1814645;79;27782;-68
2024/03/24 02:12:53;;;;;;;15.65;8.85;;;;;;;3.88;90.06;99020.92;1814570;79;25856;-67
2024/03/24 02:15:20;;;;;;;12.70;8.05;;;;;;;3.85;90.07;99006.02;1814571;79;25400;-68
2024/03/24 02:17:46;;;;;;;14.65;9.00;;;;;;;3.81;90.36;99007.67;1814566;79;25590;-68
2024/03/24 02:20:13;;;;;;;11.80;7.92;;;;;;;3.78;90.21;99018.95;1814529;79;25441;-69
2024/03/24 02:22:42;;;;;;;11.30;6.80;;;;;;;3.72;90.16;99020.38;1814481;79;27254;-74
2024/03/24 02:25:09;;;;;;;9.58;6.35;;;;;;;3.69;90.24;99022.86;1814614;78;26095;-68
2024/03/24 02:27:36;;;;;;;11.68;7.58;;;;;;;3.62;90.11;99033.93;1814629;79;25395;-69
2024/03/24 02:30:04;;;;;;;10.95;6.92;;;;;;;3.57;90.09;99038.02;1814520;79;26530;-69
2024/03/24 02:32:30;;;;;;;11.60;6.42;;;;;;;3.52;90.17;99038.92;1814592;79;25645;-69
2024/03/24 02:34:57;;;;;;;10.13;6.78;;;;;;;3.48;90.18;99025.87;1814494;78;28203;-69
2024/03/24 02:37:23;;;;;;;8.93;5.90;;;;;;;3.43;90.39;99024.62;1814422;79;25625;-69
2024/03/24 02:39:50;;;;;;;10.68;5.37;;;;;;;3.41;90.48;99023.34;1814599;78;25466;-68
2024/03/24 02:42:16;;;;;;;10.82;5.92;;;;;;;3.36;90.46;99024.20;1814470;79;26570;-68
2024/03/24 02:44:43;;;;;;;7.90;5.35;;;;;;;3.33;90.65;99032.80;1814575;79;25345;-68
2024/03/24 02:47:09;;;;;;;9.23;5.95;;;;;;;3.31;90.66;99028.30;1814494;79;27964;-68
2024/03/24 02:49:36;;;;;;;10.75;5.95;;;;;;;3.26;90.11;99034.50;1814430;79;25610;-68
2024/03/24 02:52:04;;;;;;;9.08;5.22;;;;;;;3.23;90.38;99034.30;1814482;79;25507;-68
2024/03/24 02:54:31;;;;;;;8.00;5.22;;;;;;;3.21;90.85;99051.95;1814650;79;26153;-69
2024/03/24 02:56:58;;;;;;;11.25;5.55;;;;;;;3.19;91.00;99052.79;1814506;79;25194;-69
2024/03/24 02:59:25;;;;;;;10.03;5.35;;;;;;;3.17;91.25;99049.63;1814535;79;27445;-68
2024/03/24 03:01:52;;;;;;;8.23;4.85;;;;;;;3.13;90.99;99045.41;1814399;79;25607;-69
2024/03/24 03:04:19;;;;;;;10.32;4.78;;;;;;;3.09;91.24;99048.38;1814564;79;25539;-67
2024/03/24 03:06:45;;;;;;;10.60;5.30;;;;;;;3.07;91.20;99052.44;1814444;79;25994;-68
2024/03/24 03:09:16;;;;;;;7.78;4.90;;;;;;;3.05;91.53;99059.92;1814484;79;25453;-68
2024/03/24 03:11:40;;;;;;;10.15;5.20;;;;;;;3.03;91.46;99062.91;1814154;78;27305;-68
2024/03/24 03:14:07;;;;;;;8.23;5.45;;;;;;;3.02;91.75;99078.68;1814458;79;25673;-68
2024/03/24 03:16:33;;;;;;;7.75;5.03;;;;;;;2.98;91.78;99085.14;1814481;79;25451;-69
2024/03/24 03:19:02;;;;;;;9.78;5.58;;;;;;;2.94;91.74;99088.12;1814466;78;26594;-69
2024/03/24 03:21:29;;;;;;;7.67;5.45;;;;;;;2.90;92.02;99090.34;1814471;79;25554;-68
2024/03/24 03:23:55;;;;;;;9.78;5.60;;;;;;;2.87;92.26;99093.03;1814492;79;28337;-72
2024/03/24 03:26:23;;;;;;;11.03;5.67;;;;;;;2.85;92.70;99091.73;1814369;79;25459;-69
2024/03/24 03:28:50;;;;;;;8.93;6.05;;;;;;;2.82;92.36;99091.75;1814617;79;25504;-69
2024/03/24 03:31:17;;;;;;;10.18;6.12;;;;;;;2.79;92.82;99073.11;1814481;79;26086;-69
2024/03/24 03:33:44;;;;;;;8.68;5.80;;;;;;;2.79;93.07;99074.97;1814617;79;25486;-68
2024/03/24 03:36:11;;;;;;;11.97;5.72;;;;;;;2.79;93.23;99069.10;1811259;78;27343;-69
2024/03/24 03:38:39;;;;;;;11.53;5.65;;;;;;;2.80;93.47;99068.55;1806416;79;25531;-68
2024/03/24 03:41:05;;;;;;;11.03;5.65;;;;;;;2.80;93.39;99066.67;1806442;79;25610;-69
2024/03/24 03:43:33;;;;;;;13.70;6.90;;;;;;;2.82;93.10;99060.26;1806728;79;25923;-69
2024/03/24 03:46:00;;;;;;;9.38;5.80;;;;;;;2.79;93.33;99055.75;1809058;79;25226;-68
2024/03/24 03:48:28;;;;;;;9.83;6.58;;;;;;;2.80;93.33;99051.20;1809024;79;28303;-69
2024/03/24 03:50:56;;;;;;;13.00;7.20;;;;;;;2.78;93.47;99050.14;1809205;79;25528;-69
2024/03/24 03:53:24;;;;;;;12.07;7.75;;;;;;;2.78;93.32;99050.70;1809088;79;25574;-69
2024/03/24 03:55:55;;;;;;;12.50;7.05;;;;;;;2.77;93.49;99050.42;1809029;79;26159;-69
2024/03/24 03:58:22;;;;;;;16.70;8.30;;;;;;;2.75;93.31;99041.91;1809083;79;25570;-72
2024/03/24 04:00:49;;;;;;;12.20;7.95;;;;;;;2.76;93.60;99042.18;1809075;79;27037;-72
2024/03/24 04:03:17;;;;;;;15.40;7.85;;;;;;;2.74;93.84;99038.45;1808846;79;25778;-69
2024/03/24 04:05:43;;;;;;;12.80;8.20;;;;;;;2.73;93.92;99036.86;1808971;79;25593;-71
2024/03/24 04:08:11;;;;;;;14.38;8.70;;;;;;;2.72;93.99;99031.80;1808986;78;26323;-69
2024/03/24 04:10:39;;;;;;;14.33;8.33;;;;;;;2.70;93.90;99030.75;1809029;79;25457;-69
2024/03/24 04:13:06;;;;;;;13.32;8.38;;;;;;;2.69;94.03;99033.70;1808993;79;28016;-69
2024/03/24 04:15:37;;;;;;;12.30;8.40;;;;;;;2.68;94.18;99031.59;1808968;79;25729;-70
2024/03/24 04:18:05;;;;;;;14.18;9.68;;;;;;;2.66;94.06;99023.08;1808889;78;25175;-73
2024/03/24 04:20:31;;;;;;;16.12;9.28;;;;;;;2.63;94.15;99024.98;1809062;79;25718;-72
2024/03/24 04:22:59;;;;;;;14.28;9.60;;;;;;;2.61;94.43;99022.59;1809003;79;25365;-69
2024/03/24 04:25:25;;;;;;;14.63;8.25;;;;;;;2.61;94.44;99024.48;1809063;79;27948;-69
2024/03/24 04:27:52;;;;;;;13.88;8.98;;;;;;;2.59;94.53;99024.76;1808934;79;25253;-71
2024/03/24 04:30:18;;;;;;;17.10;9.50;;;;;;;2.58;94.54;99025.05;1809031;79;25522;-69
2024/03/24 04:32:45;;;;;;;14.45;8.93;;;;;;;2.56;94.70;99023.20;1809056;78;25794;-68
2024/03/24 04:35:12;;;;;;;13.20;8.00;;;;;;;2.56;95.05;99019.20;1809026;79;25186;-68
2024/03/24 04:37:40;;;;;;;17.73;9.43;;;;;;;2.56;95.07;99021.33;1809440;79;27320;-68
2024/03/24 04:40:09;;;;;;;17.15;9.25;;;;;;;2.55;94.83;99024.27;1808853;79;25616;-68
2024/03/24 04:42:36;;;;;;;19.32;10.45;;;;;;;2.52;94.90;99022.98;1811557;78;25392;-69
2024/03/24 04:45:07;;;;;;;13.90;9.35;;;;;;;2.51;94.95;99020.05;1814167;79;25964;-68
2024/03/24 04:47:34;;;;;;;15.55;8.38;;;;;;;2.51;94.79;99017.39;1814204;79;25375;-68
2024/03/24 04:50:00;;;;;;;16.67;9.28;;;;;;;2.54;95.02;99026.71;1814166;79;28108;-68
2024/03/24 04:52:27;;;;;;;14.18;8.43;;;;;;;2.54;95.18;99022.70;1814046;79;25532;-68
2024/03/24 04:54:54;;;;;;;14.68;8.85;;;;;;;2.54;95.19;99018.70;1814147;79;25413;-68
2024/03/24 04:57:22;;;;;;;16.62;8.93;;;;;;;2.53;95.33;99031.23;1814272;79;25368;-69
2024/03/24 04:59:49;;;;;;;13.08;8.90;;;;;;;2.53;95.46;99028.56;1814590;79;25558;-69
2024/03/24 05:02:16;;;;;;;13.98;8.40;;;;;;;2.53;95.63;99023.77;1814567;79;27441;-72
2024/03/24 05:04:42;;;;;;;14.18;8.35;;;;;;;2.54;95.80;99030.72;1814627;79;25364;-72
2024/03/24 05:07:10;;;;;;;17.20;8.95;;;;;;;2.56;95.92;99031.22;1814605;79;25634;-68
2024/03/24 05:09:36;;;;;;;17.57;9.23;;;;;;;2.57;96.22;99036.27;1814583;79;26022;-69
2024/03/24 05:12:05;;;;;;;13.68;8.08;;;;;;;2.59;96.32;99037.33;1814693;79;25414;-69
2024/03/24 05:14:33;;;;;;;16.80;8.80;;;;;;;2.62;96.45;99042.06;1814634;79;27800;-69
2024/03/24 05:17:02;;;;;;;16.93;8.68;;;;;;;2.65;96.64;99035.38;1814624;79;25429;-69
2024/03/24 05:19:31;;;;;;;15.72;7.65;;;;;;;2.67;96.85;99036.66;1814725;79;25523;-69
2024/03/24 05:21:58;;;;;;;14.43;8.20;;;;;;;2.70;96.97;99033.42;1814914;79;25599;-69
2024/03/24 05:24:27;;;;;;;14.03;8.85;;;;;;;2.74;97.08;99034.98;1814718;79;25511;-68
2024/03/24 05:26:54;;;;;;;17.50;8.70;;;;;;;2.78;97.13;99028.78;1814660;79;27315;-69
2024/03/24 05:29:20;;;;;;;17.07;8.73;;;;;;;2.82;97.08;99023.66;1814538;79;25366;-69
2024/03/24 05:32:00;;;;;;;16.73;9.65;;;;;;;2.85;97.23;99028.98;1814483;79;25411;-69
2024/03/24 05:34:27;;;;;;;13.20;8.75;;;;;;;2.91;97.46;99027.80;1814501;78;25641;-70
2024/03/24 05:36:54;;;;;;;16.97;9.60;;;;;;;2.95;97.79;99025.61;1797502;77;25424;-70
2024/03/24 05:39:21;;;;;;;17.92;9.75;;;;;;;3.01;97.75;99030.33;1775599;80;27704;-70
2024/03/24 05:41:51;;;;;;;20.02;9.18;;;;;;;3.05;97.79;99032.69;1775570;80;25600;-71
2024/03/24 05:44:18;;;;;;;17.12;10.30;;;;;;;3.10;97.86;99031.80;1775617;80;25448;-71
2024/03/24 05:46:46;;;;;;;17.55;9.85;;;;;;;3.16;97.99;99027.98;1775536;80;25622;-70
2024/03/24 05:49:13;;;;;;;17.77;10.00;;;;;;;3.20;98.02;99031.65;1775667;80;25535;-70
2024/03/24 05:51:41;;;;;;;16.57;10.65;;;;;;;3.27;98.07;99028.61;1775614;80;27646;-70
2024/03/24 05:54:07;;;;;;;21.77;11.25;;;;;;;3.34;98.29;99028.50;1775295;80;25556;-69
2024/03/24 05:56:36;;;;;;;18.07;9.53;;;;;;;3.41;98.31;99035.37;1775284;80;25524;-68
2024/03/24 05:59:02;;;;;;;19.62;10.60;;;;;;;3.47;98.15;99024.27;1775229;80;25781;-68
2024/03/24 06:01:29;;;;;;;17.12;10.20;;;;;;;3.53;97.98;99022.33;1775343;80;25391;-68
2024/03/24 06:03:58;;;;;;;21.02;11.20;;;;;;;3.60;98.16;99017.39;1775372;80;27313;-69
2024/03/24 06:06:25;;;;;;;21.50;11.28;;;;;;;3.67;98.18;99023.14;1775492;80;25606;-70
2024/03/24 06:08:52;;;;;;;23.38;10.93;;;;;;;3.72;97.47;99023.61;1775605;80;25511;-68
2024/03/24 06:11:19;;;;;;;23.12;11.68;;;;;;;3.77;97.57;99023.52;1775567;80;26082;-75
2024/03/24 06:13:45;;;;;;;19.95;11.97;;;;;;;3.85;97.70;99031.42;1775580;80;25595;-69
2024/03/24 06:16:12;;;;;;;19.42;11.65;;;;;;;3.88;97.13;99027.61;1775509;80;27323;-68
2024/03/24 06:18:39;;;;;;;25.95;12.45;;;;;;;3.95;97.59;99023.73;1775378;80;25590;-69
2024/03/24 06:21:05;;;;;;;24.55;13.08;;;;;;;4.03;97.80;99023.84;1775652;80;25381;-69
2024/03/24 06:23:33;;;;;;;21.15;12.35;;;;;;;4.10;97.54;99026.94;1775591;80;25991;-70
2024/03/24 06:26:00;;;;;;;18.40;11.85;;;;;;;4.15;96.69;99023.91;1775609;80;25527;-69
2024/03/24 06:28:27;;;;;;;25.23;14.45;;;;;;;4.19;96.84;99022.21;1775543;80;27321;-69
2024/03/24 06:30:55;;;;;;;23.15;14.23;;;;;;;4.19;96.12;99023.02;1775494;80;25649;-69
2024/03/24 06:33:23;;;;;;;28.12;14.83;;;;;;;4.21;95.75;99020.84;1775645;80;25401;-69
2024/03/24 06:35:50;;;;;;;22.37;14.55;;;;;;;4.27;96.12;99022.34;1775579;80;25659;-69
2024/03/24 06:38:16;;;;;;;27.93;14.60;;;;;;;4.33;96.14;99028.38;1810478;78;25537;-69
2024/03/24 06:40:43;;;;;;;29.20;15.75;;;;;;;4.37;95.79;99017.86;1814565;79;27105;-70
2024/03/24 06:43:19;;;;;;;24.87;15.78;;;;;;;4.42;95.96;99014.52;1814472;79;25807;-70
2024/03/24 06:45:46;;;;;;;24.72;14.80;;;;;;;4.44;95.47;99019.06;1813874;78;25396;-69
2024/03/24 06:48:08;;;;;;;;;;;;;;;4.47;95.26;99022.45;1816748;78;25617;-70
2024/03/24 06:50:35;;;;;;;22.07;14.03;;;;;;;4.54;95.58;99018.59;1814610;78;25585;-69
2024/03/24 06:53:02;;;;;;;25.15;14.35;;;;;;;4.55;94.75;99016.17;1814538;79;27189;-69
2024/03/24 06:55:30;;;;;;;21.25;13.03;;;;;;;4.57;94.50;99017.44;1814480;78;25526;-69
2024/03/24 06:57:58;;;;;;;22.87;15.20;;;;;;;4.58;94.15;99026.26;1814497;79;25559;-70
2024/03/24 07:00:25;;;;;;;25.40;14.70;;;;;;;4.59;94.17;99029.20;1814516;79;26110;-73
2024/03/24 07:02:53;;;;;;;26.15;15.43;;;;;;;4.62;94.48;99029.94;1814475;79;27383;-70
2024/03/24 07:05:19;;;;;;;22.65;14.45;;;;;;;4.67;94.60;99026.60;1814450;79;27304;-69
2024/03/24 07:07:48;;;;;;;27.70;16.17;;;;;;;4.68;93.69;99025.52;1814384;79;25539;-70
2024/03/24 07:10:15;;;;;;;23.65;15.90;;;;;;;4.72;93.96;99035.64;1814505;79;25365;-69
2024/03/24 07:12:41;;;;;;;25.68;16.32;;;;;;;4.75;94.01;99030.47;1814522;79;25952;-70
2024/03/24 07:15:10;;;;;;;23.18;15.55;;;;;;;4.76;93.49;99033.37;1814601;79;25578;-75
2024/03/24 07:17:38;;;;;;;23.22;15.45;;;;;;;4.75;93.29;99026.45;1814621;79;28519;-69
2024/03/24 07:20:07;;;;;;;23.30;14.95;;;;;;;4.74;92.87;99035.56;1814436;78;25526;-69
2024/03/24 07:22:34;;;;;;;24.63;15.75;;;;;;;4.74;92.45;99036.91;1814612;79;25587;-70
2024/03/24 07:25:01;;;;;;;22.48;14.05;;;;;;;4.72;92.04;99037.77;1814417;79;25561;-69
2024/03/24 07:27:29;;;;;;;21.45;15.15;;;;;;;4.73;92.30;99045.24;1814543;79;25520;-69
2024/03/24 07:29:56;;;;;;;26.87;15.00;;;;;;;4.73;92.13;99045.24;1814450;79;27301;-70
2024/03/24 07:32:22;;;;;;;20.00;14.05;;;;;;;4.70;91.86;99038.61;1814465;79;25460;-75
2024/03/24 07:34:49;;;;;;;21.05;14.28;;;;;;;4.68;91.77;99035.42;1814398;79;25534;-70
2024/03/24 07:37:18;;;;;;;26.48;15.55;;;;;;;4.72;91.92;99041.00;1811310;79;25583;-69
2024/03/24 07:39:46;;;;;;;22.20;15.63;;;;;;;4.72;91.85;99046.35;1806540;79;25611;-69
2024/03/24 07:42:13;;;;;;;26.15;15.63;;;;;;;4.73;91.57;99042.56;1807370;78;27933;-74
2024/03/24 07:44:40;;;;;;;26.85;15.80;;;;;;;4.73;92.05;99043.34;1809022;79;25365;-72
2024/03/24 07:47:07;;;;;;;22.93;15.15;;;;;;;4.76;91.87;99043.31;1809101;79;25520;-70
2024/03/24 07:49:35;;;;;;;23.20;14.63;;;;;;;4.74;91.22;99045.50;1809027;79;25650;-69
2024/03/24 07:52:03;;;;;;;24.05;16.52;;;;;;;4.70;91.23;99052.01;1809042;79;25631;-69
2024/03/24 07:54:31;;;;;;;26.62;16.70;;;;;;;4.70;91.43;99053.88;1809204;79;27280;-69
2024/03/24 07:56:58;;;;;;;24.63;15.75;;;;;;;4.66;90.85;99059.04;1808991;79;25747;-69
2024/03/24 07:59:25;;;;;;;27.50;15.60;;;;;;;4.61;90.77;99065.28;1809078;79;25392;-69
2024/03/24 08:01:52;;;;;;;36.35;23.77;;;;;;;4.60;91.04;99067.73;1808939;79;25617;-71
2024/03/24 08:04:20;;;;;;;65.52;42.53;;;;;;;4.56;90.64;99062.70;1809034;79;25594;-70
2024/03/24 08:06:47;;;;;;;29.95;18.80;;;;;;;4.55;90.29;99065.71;1809064;79;27530;-70
2024/03/24 08:09:14;;;;;;;25.05;16.40;;;;;;;4.55;90.65;99063.03;1808985;79;25198;-72
2024/03/24 08:11:40;;;;;;;24.77;15.65;;;;;;;4.58;90.80;99061.08;1809068;79;25419;-73
2024/03/24 08:14:07;;;;;;;28.12;16.85;;;;;;;4.56;90.58;99065.94;1808973;79;26448;-73
2024/03/24 08:16:34;;;;;;;26.73;16.35;;;;;;;4.54;90.84;99065.45;1808952;79;25546;-73
2024/03/24 08:19:00;;;;;;;27.10;16.70;;;;;;;4.53;90.64;99069.21;1808780;79;27928;-71
2024/03/24 08:21:26;;;;;;;29.10;18.25;;;;;;;4.54;90.67;99067.58;1808713;79;25582;-71
2024/03/24 08:23:53;;;;;;;24.10;17.15;;;;;;;4.51;90.19;99070.06;1808747;79;25358;-71
2024/03/24 08:26:19;;;;;;;27.48;17.55;;;;;;;4.53;90.65;99074.05;1808782;79;25614;-71
2024/03/24 08:28:45;;;;;;;25.88;16.85;;;;;;;4.53;90.26;99076.72;1808838;79;25496;-70
2024/03/24 08:31:11;;;;;;;28.07;16.97;;;;;;;4.51;89.96;99080.22;1808785;79;27279;-71
2024/03/24 08:33:37;;;;;;;25.23;16.65;;;;;;;4.47;89.96;99073.88;1808707;79;25591;-70
2024/03/24 08:36:04;;;;;;;25.95;17.12;;;;;;;4.40;89.61;99070.27;1808809;79;25571;-70
2024/03/24 08:38:31;;;;;;;26.90;17.25;;;;;;;4.38;89.96;99078.36;1808997;79;26347;-70
2024/03/24 08:40:57;;;;;;;24.18;15.72;;;;;;;4.36;89.88;99084.01;1808808;79;25594;-70
2024/03/24 08:43:23;;;;;;;27.20;17.00;;;;;;;4.33;90.02;99085.15;1808746;79;27962;-70
2024/03/24 08:45:49;;;;;;;23.15;16.35;;;;;;;4.33;90.27;99087.27;1808709;79;25605;-69
2024/03/24 08:48:16;;;;;;;27.70;16.82;;;;;;;4.33;90.30;99087.27;1808786;79;25382;-70
2024/03/24 08:50:44;;;;;;;26.95;17.55;;;;;;;4.36;90.59;99087.20;1813130;79;25564;-69
2024/03/24 08:53:12;;;;;;;28.95;17.80;;;;;;;4.37;90.43;99091.48;1814373;78;25609;-68
2024/03/24 08:55:41;;;;;;;28.60;18.67;;;;;;;4.34;90.31;99083.48;1814257;79;27424;-69
2024/03/24 08:58:08;;;;;;;29.80;18.85;;;;;;;4.35;90.55;99086.42;1814246;79;25188;-70
2024/03/24 09:00:34;;;;;;;27.65;18.30;;;;;;;4.35;90.38;99078.39;1814207;79;25511;-69
2024/03/24 09:03:01;;;;;;;27.73;18.17;;;;;;;4.35;90.30;99086.42;1814097;79;25539;-70
2024/03/24 09:05:28;;;;;;;30.05;19.85;;;;;;;4.32;90.03;99090.24;1814245;79;25626;-69
2024/03/24 09:07:54;;;;;;;36.80;23.83;;;;;;;4.29;90.33;99099.13;1814186;79;27684;-68
2024/03/24 09:10:21;;;;;;;48.40;31.30;;;;;;;4.29;90.67;99087.59;1814082;79;25439;-70
2024/03/24 09:12:50;;;;;;;27.95;19.15;;;;;;;4.32;90.70;99083.00;1814140;79;25412;-71
2024/03/24 09:15:18;;;;;;;27.95;16.77;;;;;;;4.39;90.95;99083.42;1814270;79;25796;-70
2024/03/24 09:17:44;;;;;;;29.23;16.52;;;;;;;4.47;91.02;99083.26;1814106;77;25394;-70
2024/03/24 09:20:15;;;;;;;21.17;14.90;;;;;;;4.54;90.61;99090.89;1814218;78;27327;-69
2024/03/24 09:22:42;;;;;;;21.35;14.93;;;;;;;4.60;90.87;99085.70;1814136;79;25402;-69
2024/03/24 09:25:09;;;;;;;19.87;13.10;;;;;;;4.64;90.30;99092.81;1814164;78;25590;-69
2024/03/24 09:27:36;;;;;;;19.30;13.15;;;;;;;4.66;89.83;99095.20;1814065;79;27720;-68
2024/03/24 09:30:06;;;;;;;24.80;14.75;;;;;;;4.66;89.50;99090.62;1814205;79;25447;-69
2024/03/24 09:32:32;;;;;;;20.65;14.68;;;;;;;4.67;89.41;99090.88;1814165;79;27309;-69
2024/03/24 09:34:58;;;;;;;27.37;16.48;;;;;;;4.71;89.43;99097.77;1813968;79;27220;-69
2024/03/24 09:37:25;;;;;;;24.02;15.75;;;;;;;4.71;89.05;99105.03;1814020;79;25596;-69
2024/03/24 09:39:53;;;;;;;21.55;14.87;;;;;;;4.69;89.26;99093.27;1814152;79;25610;-70
2024/03/24 09:42:19;;;;;;;22.42;15.98;;;;;;;4.70;88.69;99097.55;1814142;79;25358;-68
2024/03/24 09:44:48;;;;;;;20.88;14.98;;;;;;;4.67;88.52;99096.24;1814108;79;27314;-68
2024/03/24 09:47:16;;;;;;;20.05;14.78;;;;;;;4.67;88.51;99094.12;1814138;79;25385;-68
2024/03/24 09:49:44;;;;;;;23.12;15.48;;;;;;;4.67;88.61;99088.77;1814262;79;25461;-67
2024/03/24 09:52:14;;;;;;;21.15;14.98;;;;;;;4.65;88.79;99086.94;1814403;78;26011;-70
2024/03/24 09:54:40;;;;;;;23.38;16.40;;;;;;;4.66;88.69;99091.19;1814363;78;25393;-68
2024/03/24 09:57:08;;;;;;;23.07;16.52;;;;;;;4.69;89.13;99087.91;1814472;79;27344;-67
2024/03/24 09:59:37;;;;;;;21.52;15.68;;;;;;;4.70;89.10;99086.83;1814260;79;25538;-66
2024/03/24 10:02:08;;;;;;;23.27;16.07;;;;;;;4.73;88.93;99087.55;1814541;78;25435;-67
2024/03/24 10:04:36;;;;;;;21.95;16.37;;;;;;;4.77;89.14;99092.58;1814338;79;25590;-68
2024/03/24 10:07:04;;;;;;;24.27;15.32;;;;;;;4.82;89.26;99085.77;1814411;79;25636;-67
2024/03/24 10:09:30;;;;;;;21.10;15.32;;;;;;;4.89;89.43;99079.19;1814283;79;27261;-66
2024/03/24 10:11:57;;;;;;;26.40;16.15;;;;;;;4.99;89.80;99081.13;1814153;79;25417;-67
2024/03/24 10:14:26;;;;;;;22.22;15.23;;;;;;;5.12;89.63;99082.73;1814284;78;25558;-69
2024/03/24 10:16:56;;;;;;;23.20;15.13;;;;;;;5.20;88.91;99078.78;1814300;79;25744;-67
2024/03/24 10:19:24;;;;;;;20.00;14.58;;;;;;;5.27;89.02;99075.69;1813028;78;25404;-67
2024/03/24 10:21:52;;;;;;;20.43;14.47;;;;;;;5.37;88.54;99079.47;1814197;79;27317;-67
2024/03/24 10:24:18;;;;;;;19.25;13.62;;;;;;;5.45;87.68;99077.97;1802869;79;25965;-67
2024/03/24 10:26:45;;;;;;;38.05;25.00;;;;;;;5.47;87.39;99074.42;1814317;79;25433;-68
2024/03/24 10:29:11;;;;;;;40.75;27.75;;;;;;;5.49;86.73;99075.47;1814349;79;25705;-69
2024/03/24 10:31:37;;;;;;;22.58;15.35;;;;;;;5.49;86.52;99076.80;1814299;79;25566;-69
2024/03/24 10:34:03;;;;;;;20.88;13.75;;;;;;;5.49;86.27;99078.93;1814295;79;27369;-66
2024/03/24 10:36:37;;;;;;;22.05;13.75;;;;;;;5.51;86.45;99077.29;1814226;79;25656;-67
2024/03/24 10:39:08;;;;;;;16.65;13.05;;;;;;;5.56;86.62;99075.83;1814193;78;25586;-67
2024/03/24 10:41:37;;;;;;;21.95;14.68;;;;;;;5.65;87.81;99068.62;1814248;79;26288;-66
2024/03/24 10:44:06;;;;;;;21.60;14.38;;;;;;;6.12;94.33;99059.68;1814218;79;25384;-67
2024/03/24 10:46:34;;;;;;;23.30;14.37;;;;;;;7.21;95.20;99061.45;1814454;79;27305;-67
2024/03/24 10:49:03;;;;;;;16.27;11.45;;;;;;;8.37;94.15;99051.69;1814298;79;25994;-67
2024/03/24 10:51:32;;;;;;;12.83;10.23;;;;;;;9.25;89.76;99054.10;1814483;79;25441;-67
2024/03/24 10:54:03;;;;;;;11.07;8.47;;;;;;;9.87;85.30;99047.56;1813934;79;25748;-67
2024/03/24 10:56:31;;;;;;;13.30;8.00;;;;;;;10.74;83.58;99043.80;1812859;78;25728;-66
2024/03/24 10:59:04;;;;;;;13.90;7.10;;;;;;;11.39;78.90;99036.19;1814084;79;27284;-67
2024/03/24 11:01:33;;;;;;;10.35;7.30;;;;;;;11.65;75.13;99035.75;1814174;79;25357;-68
2024/03/24 11:04:03;;;;;;;7.75;6.78;;;;;;;11.75;75.72;99030.40;1814436;79;25606;-69
2024/03/24 11:06:33;;;;;;;10.05;6.37;;;;;;;12.59;73.16;99023.15;1814500;79;25586;-70
2024/03/24 11:09:00;;;;;;;8.30;5.95;;;;;;;12.70;67.60;99020.89;1814511;79;25536;-71
2024/03/24 11:11:29;;;;;;;9.30;6.47;;;;;;;12.22;64.69;99020.16;1814379;79;27200;-70
2024/03/24 11:13:57;;;;;;;7.60;5.90;;;;;;;12.47;68.17;99018.62;1814633;79;25966;-71
2024/03/24 11:16:25;;;;;;;10.15;5.72;;;;;;;12.26;65.78;99010.20;1814383;79;25560;-70
2024/03/24 11:18:52;;;;;;;7.65;5.55;;;;;;;11.82;65.15;99003.48;1814666;79;26586;-71
2024/03/24 11:21:34;;;;;;;6.80;4.97;;;;;;;11.53;65.97;98995.97;1814443;79;25411;-71
2024/03/24 11:24:31;;;;;;;10.43;5.85;;;;;;;11.43;66.39;99002.47;1814192;78;27332;-75
2024/03/24 11:26:59;;;;;;;7.45;5.33;;;;;;;11.32;67.11;99000.26;1814365;79;25866;-74
2024/03/24 11:29:49;;;;;;;6.60;5.10;;;;;;;11.45;66.37;98991.50;1814410;79;25531;-70